Time,TemperatureF,DewpointF,PressureIn,WindDirection,WindDirectionDegrees,WindSpeedMPH,WindSpeedGustMPH,Humidity,HourlyPrecipIn,Conditions,Clouds,dailyrainin,SoftwareType,DateUTC
2014-02-03 00:00:00,79.4,75.5,29.86,ENE,68,10.0,17.0,88,0.00,,,0.00,VWS V14.01,2014-02-03 06:00:00,
2014-02-03 00:30:00,79.2,75.3,29.85,ENE,68,9.0,19.0,88,0.00,,,0.00,VWS V14.01,2014-02-03 06:30:00,
2014-02-03 01:00:00,79.1,74.9,29.84,ENE,68,9.0,16.0,87,0.00,,,0.00,VWS V14.01,2014-02-03 07:00:00,
2014-02-03 02:00:00,79.2,75.0,29.83,ENE,68,9.0,17.0,87,0.00,,,0.00,VWS V14.01,2014-02-03 08:00:00,
2014-02-03 02:30:00,79.2,74.7,29.83,ENE,68,8.0,17.0,86,0.00,,,0.00,VWS V14.01,2014-02-03 08:30:00,
2014-02-03 03:00:00,78.8,74.9,29.84,ENE,68,7.0,15.0,88,0.00,,,0.00,VWS V14.01,2014-02-03 09:00:00,
2014-02-03 03:30:00,78.6,74.8,29.84,ENE,68,6.0,12.0,88,0.00,,,0.00,VWS V14.01,2014-02-03 09:30:00,
2014-02-03 04:00:00,78.6,74.4,29.84,ENE,68,5.0,9.0,87,0.00,,,0.00,VWS V14.01,2014-02-03 10:00:00,
2014-02-03 04:30:00,78.6,73.7,29.85,ENE,68,5.0,10.0,85,0.00,,,0.00,VWS V14.01,2014-02-03 10:30:00,
2014-02-03 05:00:00,78.2,74.0,29.86,East,90,3.0,7.0,87,0.00,,,0.00,VWS V14.01,2014-02-03 11:00:00,
2014-02-03 05:30:00,78.2,74.0,29.87,ESE,112,3.0,8.0,87,0.00,,,0.00,VWS V14.01,2014-02-03 11:30:00,
2014-02-03 06:00:00,77.8,73.6,29.88,SE,135,2.0,5.0,87,0.00,,,0.00,VWS V14.01,2014-02-03 12:00:00,
2014-02-03 06:30:00,77.7,74.9,29.89,SE,135,3.0,5.0,91,0.00,,,0.00,VWS V14.01,2014-02-03 12:30:00,
2014-02-03 07:00:00,79.5,76.0,29.90,SSE,158,3.0,6.0,89,0.00,,,0.00,VWS V14.01,2014-02-03 13:00:00,
2014-02-03 07:30:00,80.6,76.0,29.91,SSE,158,4.0,9.0,86,0.00,,,0.00,VWS V14.01,2014-02-03 13:30:00,
2014-02-03 08:00:00,80.6,76.0,29.92,South,180,6.0,8.0,86,0.00,,,0.00,VWS V14.01,2014-02-03 14:00:00,
2014-02-03 08:30:00,80.9,76.0,29.94,South,180,5.0,9.0,85,0.00,,,0.00,VWS V14.01,2014-02-03 14:30:00,
2014-02-03 09:00:00,80.2,75.6,29.94,SSW,202,5.0,8.0,86,0.00,,,0.00,VWS V14.01,2014-02-03 15:00:00,
2014-02-03 09:30:00,81.1,75.4,29.95,SSW,202,5.0,8.0,83,0.00,,,0.00,VWS V14.01,2014-02-03 15:30:00,
2014-02-03 10:00:00,83.8,76.6,29.95,SSE,158,3.0,7.0,79,0.00,,,0.00,VWS V14.01,2014-02-03 16:00:00,
2014-02-03 10:30:00,83.1,75.5,29.95,SE,135,3.0,6.0,78,0.00,,,0.00,VWS V14.01,2014-02-03 16:30:00,
2014-02-03 11:00:00,85.3,76.9,29.94,SE,135,3.0,6.0,76,0.00,,,0.00,VWS V14.01,2014-02-03 17:00:00,
2014-02-03 11:30:00,86.0,76.3,29.93,SE,135,2.0,5.0,73,0.00,,,0.00,VWS V14.01,2014-02-03 17:30:00,
2014-02-03 12:00:00,86.9,76.8,29.91,SE,135,1.0,4.0,72,0.00,,,0.00,VWS V14.01,2014-02-03 18:00:00,
2014-02-03 12:30:00,87.7,77.6,29.90,SE,135,2.0,4.0,72,0.00,,,0.00,VWS V14.01,2014-02-03 18:30:00,
2014-02-03 13:00:00,87.3,77.2,29.89,SE,135,2.0,4.0,72,0.00,,,0.00,VWS V14.01,2014-02-03 19:00:00,
2014-02-03 13:30:00,83.5,74.8,29.89,SE,135,3.0,8.0,75,0.00,,,0.00,VWS V14.01,2014-02-03 19:30:00,
2014-02-03 14:00:00,82.7,75.2,29.87,ENE,68,4.0,10.0,78,0.00,,,0.00,VWS V14.01,2014-02-03 20:00:00,
2014-02-03 14:30:00,82.0,73.7,29.87,ENE,68,4.0,10.0,76,0.00,,,0.00,VWS V14.01,2014-02-03 20:30:00,
2014-02-03 15:00:00,82.6,73.5,29.87,ENE,68,5.0,12.0,74,0.00,,,0.00,VWS V14.01,2014-02-03 21:00:00,
2014-02-03 15:30:00,82.1,72.2,29.87,ENE,68,6.0,12.0,72,0.00,,,0.00,VWS V14.01,2014-02-03 21:30:00,
2014-02-03 16:18:00,82.5,74.6,29.88,ENE,58,7.0,7.0,77,0.00,,,0.00,VWS V14.01,2014-02-03 22:18:00,
2014-02-03 16:23:00,82.4,74.5,29.87,East,98,9.0,12.0,77,0.00,,,0.00,VWS V14.01,2014-02-03 22:23:00,
2014-02-03 16:28:00,82.3,74.0,29.88,ENE,69,6.0,14.0,76,0.00,,,0.00,VWS V14.01,2014-02-03 22:28:00,
2014-02-03 16:33:00,82.1,74.2,29.88,NE,44,8.0,9.0,77,0.00,,,0.00,VWS V14.01,2014-02-03 22:33:00,
2014-02-03 16:38:00,82.2,74.3,29.88,ENE,62,3.0,12.0,77,0.00,,,0.00,VWS V14.01,2014-02-03 22:38:00,
2014-02-03 16:43:00,82.0,73.7,29.88,East,100,5.0,12.0,76,0.00,,,0.00,VWS V14.01,2014-02-03 22:43:00,
2014-02-03 16:48:00,82.1,74.2,29.88,NE,46,6.0,12.0,77,0.00,,,0.00,VWS V14.01,2014-02-03 22:48:00,
2014-02-03 16:53:00,81.7,73.8,29.88,NE,45,3.0,12.0,77,0.00,,,0.00,VWS V14.01,2014-02-03 22:53:00,
2014-02-03 16:58:00,81.4,73.9,29.88,ENE,72,6.0,12.0,78,0.00,,,0.00,VWS V14.01,2014-02-03 22:58:00,
2014-02-03 17:03:00,81.4,73.9,29.88,ESE,111,2.0,8.0,78,0.00,,,0.00,VWS V14.01,2014-02-03 23:03:00,
2014-02-03 17:08:00,81.4,73.9,29.88,ENE,74,2.0,9.0,78,0.00,,,0.00,VWS V14.01,2014-02-03 23:08:00,
2014-02-03 17:13:00,81.2,73.7,29.88,East,82,4.0,10.0,78,0.00,,,0.00,VWS V14.01,2014-02-03 23:13:00,
2014-02-03 17:18:00,81.2,74.1,29.88,ENE,75,5.0,11.0,79,0.00,,,0.00,VWS V14.01,2014-02-03 23:18:00,
2014-02-03 17:23:00,81.0,74.2,29.88,ENE,72,4.0,11.0,80,0.00,,,0.00,VWS V14.01,2014-02-03 23:23:00,
2014-02-03 17:28:00,80.9,74.2,29.89,NE,47,3.0,11.0,80,0.00,,,0.00,VWS V14.01,2014-02-03 23:28:00,
2014-02-03 17:33:00,80.7,74.0,29.89,NNE,21,8.0,9.0,80,0.00,,,0.00,VWS V14.01,2014-02-03 23:33:00,
2014-02-03 17:38:00,80.6,74.2,29.89,ENE,63,2.0,9.0,81,0.00,,,0.00,VWS V14.01,2014-02-03 23:38:00,
2014-02-03 17:43:00,80.5,74.1,29.89,NE,38,2.0,9.0,81,0.00,,,0.00,VWS V14.01,2014-02-03 23:43:00,
2014-02-03 17:48:00,80.3,74.3,29.89,ESE,103,2.0,9.0,82,0.00,,,0.00,VWS V14.01,2014-02-03 23:48:00,
2014-02-03 17:53:00,80.2,74.2,29.89,ENE,67,7.0,9.0,82,0.00,,,0.00,VWS V14.01,2014-02-03 23:53:00,
2014-02-03 17:58:00,80.1,74.5,29.89,East,84,4.0,10.0,83,0.00,,,0.00,VWS V14.01,2014-02-03 23:58:00,
2014-02-03 18:03:00,80.1,74.1,29.89,East,81,2.0,6.0,82,0.00,,,0.00,VWS V14.01,2014-02-04 00:03:00,
2014-02-03 18:08:00,80.0,74.0,29.89,NE,54,1.0,8.0,82,0.00,,,0.00,VWS V14.01,2014-02-04 00:08:00,
2014-02-03 18:13:00,80.0,74.0,29.89,NE,53,7.0,11.0,82,0.00,,,0.00,VWS V14.01,2014-02-04 00:13:00,
2014-02-03 18:18:00,79.9,73.9,29.89,ENE,75,3.0,11.0,82,0.00,,,0.00,VWS V14.01,2014-02-04 00:18:00,
2014-02-03 18:23:00,80.0,74.4,29.89,East,83,4.0,11.0,83,0.00,,,0.00,VWS V14.01,2014-02-04 00:23:00,
2014-02-03 18:28:00,79.9,73.9,29.89,ENE,75,4.0,11.0,82,0.00,,,0.00,VWS V14.01,2014-02-04 00:28:00,
2014-02-03 18:33:00,79.9,74.3,29.90,East,88,7.0,10.0,83,0.00,,,0.00,VWS V14.01,2014-02-04 00:33:00,
2014-02-03 18:38:00,79.8,74.2,29.89,NE,56,7.0,10.0,83,0.00,,,0.00,VWS V14.01,2014-02-04 00:38:00,
2014-02-03 18:43:00,79.8,74.5,29.90,East,96,6.0,10.0,84,0.00,,,0.00,VWS V14.01,2014-02-04 00:43:00,
2014-02-03 18:48:00,79.7,74.4,29.90,ENE,61,6.0,10.0,84,0.00,,,0.00,VWS V14.01,2014-02-04 00:48:00,
2014-02-03 18:53:00,79.6,74.7,29.90,NE,35,3.0,10.0,85,0.00,,,0.00,VWS V14.01,2014-02-04 00:53:00,
2014-02-03 18:58:00,79.6,74.7,29.90,ENE,72,0.0,10.0,85,0.00,,,0.00,VWS V14.01,2014-02-04 00:58:00,
2014-02-03 19:03:00,79.5,74.6,29.90,NNE,27,3.0,8.0,85,0.00,,,0.00,VWS V14.01,2014-02-04 01:03:00,
2014-02-03 19:08:00,79.4,74.5,29.90,ENE,65,3.0,8.0,85,0.00,,,0.00,VWS V14.01,2014-02-04 01:08:00,
2014-02-03 19:13:00,79.4,74.5,29.91,East,90,3.0,8.0,85,0.00,,,0.00,VWS V14.01,2014-02-04 01:13:00,
2014-02-03 19:18:00,79.4,74.5,29.91,NNE,13,2.0,8.0,85,0.00,,,0.00,VWS V14.01,2014-02-04 01:18:00,
2014-02-03 19:23:00,79.5,74.6,29.91,ENE,74,6.0,10.0,85,0.00,,,0.00,VWS V14.01,2014-02-04 01:23:00,
2014-02-03 19:28:00,79.5,74.9,29.91,NNE,28,6.0,10.0,86,0.00,,,0.00,VWS V14.01,2014-02-04 01:28:00,
2014-02-03 19:33:00,79.5,74.9,29.91,NNW,342,4.0,7.0,86,0.00,,,0.00,VWS V14.01,2014-02-04 01:33:00,
2014-02-03 19:38:00,79.5,74.6,29.91,ENE,61,2.0,11.0,85,0.00,,,0.00,VWS V14.01,2014-02-04 01:38:00,
2014-02-03 19:43:00,79.5,74.9,29.92,NNE,17,2.0,11.0,86,0.00,,,0.00,VWS V14.01,2014-02-04 01:43:00,
2014-02-03 19:48:00,79.5,74.9,29.92,ENE,62,3.0,11.0,86,0.00,,,0.00,VWS V14.01,2014-02-04 01:48:00,
2014-02-03 19:53:00,79.6,75.1,29.92,NE,48,3.0,11.0,86,0.00,,,0.00,VWS V14.01,2014-02-04 01:53:00,
2014-02-03 19:58:00,79.6,75.1,29.92,NE,51,5.0,11.0,86,0.00,,,0.00,VWS V14.01,2014-02-04 01:58:00,
2014-02-03 20:03:00,79.6,75.1,29.92,NE,55,4.0,8.0,86,0.00,,,0.00,VWS V14.01,2014-02-04 02:03:00,
2014-02-03 20:08:00,79.7,74.4,29.92,ENE,58,5.0,11.0,84,0.00,,,0.00,VWS V14.01,2014-02-04 02:08:00,
2014-02-03 20:13:00,79.8,74.5,29.92,ENE,61,5.0,11.0,84,0.00,,,0.00,VWS V14.01,2014-02-04 02:13:00,
2014-02-03 20:18:00,79.9,74.6,29.92,ENE,69,6.0,11.0,84,0.00,,,0.00,VWS V14.01,2014-02-04 02:18:00,
2014-02-03 20:23:00,79.9,74.3,29.92,ENE,67,5.0,13.0,83,0.00,,,0.00,VWS V14.01,2014-02-04 02:23:00,
2014-02-03 20:28:00,79.9,74.3,29.92,ENE,60,5.0,13.0,83,0.00,,,0.00,VWS V14.01,2014-02-04 02:28:00,
2014-02-03 20:33:00,79.9,74.6,29.92,East,90,5.0,10.0,84,0.00,,,0.00,VWS V14.01,2014-02-04 02:33:00,
2014-02-03 20:38:00,79.9,74.6,29.92,NNE,26,7.0,14.0,84,0.00,,,0.00,VWS V14.01,2014-02-04 02:38:00,
2014-02-03 20:43:00,79.8,74.9,29.92,East,92,5.0,14.0,85,0.00,,,0.00,VWS V14.01,2014-02-04 02:43:00,
2014-02-03 20:48:00,79.7,74.4,29.92,NE,44,8.0,14.0,84,0.00,,,0.00,VWS V14.01,2014-02-04 02:48:00,
2014-02-03 20:53:00,79.7,74.8,29.93,NE,51,4.0,14.0,85,0.00,,,0.00,VWS V14.01,2014-02-04 02:53:00,
2014-02-03 20:58:00,79.6,74.3,29.93,ENE,63,8.0,14.0,84,0.00,,,0.00,VWS V14.01,2014-02-04 02:58:00,
2014-02-03 21:03:00,79.7,74.4,29.93,ENE,66,5.0,15.0,84,0.00,,,0.00,VWS V14.01,2014-02-04 03:03:00,
2014-02-03 21:08:00,79.6,74.3,29.93,NE,43,7.0,16.0,84,0.00,,,0.00,VWS V14.01,2014-02-04 03:08:00,
2014-02-03 21:13:00,79.7,74.8,29.93,East,83,5.0,16.0,85,0.00,,,0.00,VWS V14.01,2014-02-04 03:13:00,
2014-02-03 21:18:00,79.6,75.1,29.93,ENE,68,3.0,16.0,86,0.00,,,0.00,VWS V14.01,2014-02-04 03:18:00,
2014-02-03 21:23:00,79.6,74.7,29.93,ENE,62,4.0,16.0,85,0.00,,,0.00,VWS V14.01,2014-02-04 03:23:00,
2014-02-03 21:28:00,79.7,75.2,29.93,ENE,68,5.0,16.0,86,0.00,,,0.00,VWS V14.01,2014-02-04 03:28:00,
2014-02-03 21:33:00,79.7,75.2,29.93,NE,39,5.0,14.0,86,0.00,,,0.00,VWS V14.01,2014-02-04 03:33:00,
2014-02-03 21:38:00,79.7,75.2,29.93,East,86,4.0,14.0,86,0.00,,,0.00,VWS V14.01,2014-02-04 03:38:00,
2014-02-03 21:43:00,79.8,75.2,29.93,East,79,9.0,14.0,86,0.00,,,0.00,VWS V14.01,2014-02-04 03:43:00,
2014-02-03 21:48:00,79.7,75.8,29.93,NE,56,3.0,14.0,88,0.00,,,0.00,VWS V14.01,2014-02-04 03:48:00,
2014-02-03 21:53:00,79.4,75.5,29.93,East,80,7.0,14.0,88,0.00,,,0.00,VWS V14.01,2014-02-04 03:53:00,
2014-02-03 21:58:00,79.2,75.0,29.93,ESE,110,8.0,14.0,87,0.00,,,0.00,VWS V14.01,2014-02-04 03:58:00,
2014-02-03 22:03:00,79.2,75.0,29.93,ENE,58,6.0,12.0,87,0.00,,,0.00,VWS V14.01,2014-02-04 04:03:00,
2014-02-03 22:08:00,79.2,75.0,29.93,NNE,13,6.0,13.0,87,0.00,,,0.00,VWS V14.01,2014-02-04 04:08:00,
2014-02-03 22:13:00,79.3,74.8,29.93,ENE,62,12.0,13.0,86,0.00,,,0.00,VWS V14.01,2014-02-04 04:13:00,
2014-02-03 22:18:00,79.4,74.5,29.93,ENE,58,11.0,14.0,85,0.00,,,0.00,VWS V14.01,2014-02-04 04:18:00,
2014-02-03 22:23:00,79.5,74.9,29.93,ENE,67,12.0,16.0,86,0.00,,,0.00,VWS V14.01,2014-02-04 04:23:00,
2014-02-03 22:28:00,79.6,75.1,29.92,East,83,4.0,16.0,86,0.00,,,0.00,VWS V14.01,2014-02-04 04:28:00,
2014-02-03 22:33:00,79.6,75.4,29.92,East,83,12.0,14.0,87,0.00,,,0.00,VWS V14.01,2014-02-04 04:33:00,
2014-02-03 22:38:00,79.4,75.2,29.92,ENE,69,10.0,14.0,87,0.00,,,0.00,VWS V14.01,2014-02-04 04:38:00,
2014-02-03 22:43:00,79.4,75.5,29.92,ENE,73,9.0,14.0,88,0.00,,,0.00,VWS V14.01,2014-02-04 04:43:00,
2014-02-03 22:48:00,79.3,75.1,29.93,ENE,69,12.0,14.0,87,0.00,,,0.00,VWS V14.01,2014-02-04 04:48:00,
2014-02-03 22:53:00,79.3,75.1,29.93,ENE,60,5.0,14.0,87,0.00,,,0.00,VWS V14.01,2014-02-04 04:53:00,
2014-02-03 22:58:00,79.3,75.4,29.93,NE,37,12.0,15.0,88,0.00,,,0.00,VWS V14.01,2014-02-04 04:58:00,
2014-02-03 23:01:00,79.3,75.4,29.92,NE,56,9.0,15.0,88,0.00,,,0.00,VWS V14.01,2014-02-04 05:01:00,
2014-02-03 23:06:00,79.2,75.0,29.92,ENE,70,10.0,17.0,87,0.00,,,0.00,VWS V14.01,2014-02-04 05:06:00,
2014-02-03 23:11:00,79.2,75.0,29.92,ESE,115,3.0,17.0,87,0.00,,,0.00,VWS V14.01,2014-02-04 05:11:00,
2014-02-03 23:16:00,79.2,75.0,29.92,ENE,75,7.0,17.0,87,0.00,,,0.00,VWS V14.01,2014-02-04 05:16:00,
2014-02-03 23:21:00,79.2,75.0,29.92,ENE,58,9.0,17.0,87,0.00,,,0.00,VWS V14.01,2014-02-04 05:21:00,
2014-02-03 23:26:00,79.2,74.7,29.92,ENE,75,6.0,17.0,86,0.00,,,0.00,VWS V14.01,2014-02-04 05:26:00,
2014-02-03 23:31:00,79.2,74.7,29.92,East,99,7.0,11.0,86,0.00,,,0.00,VWS V14.01,2014-02-04 05:31:00,
2014-02-03 23:36:00,79.2,74.7,29.92,ENE,74,7.0,17.0,86,0.00,,,0.00,VWS V14.01,2014-02-04 05:36:00,
2014-02-03 23:41:00,79.2,74.7,29.91,NE,56,8.0,17.0,86,0.00,,,0.00,VWS V14.01,2014-02-04 05:41:00,
2014-02-03 23:46:00,79.2,74.7,29.91,ENE,67,11.0,17.0,86,0.00,,,0.00,VWS V14.01,2014-02-04 05:46:00,
2014-02-03 23:51:00,79.2,74.7,29.91,ENE,57,7.0,17.0,86,0.00,,,0.00,VWS V14.01,2014-02-04 05:51:00,
2014-02-03 23:56:00,79.2,74.7,29.91,ENE,75,3.0,17.0,86,0.00,,,0.00,VWS V14.01,2014-02-04 05:56:00,